sensor_id;sensor_type;location;lat;lon;timestamp;pressure;altitude;pressure_sealevel;temperature;humidity
44974;BME280;60981;50.720;11.342;2023-06-22T00:00:07;100224.03;;;19.80;78.48
44974;BME280;60981;50.720;11.342;2023-06-22T00:01:13;100172.22;;;19.78;79.06
44974;BME280;60981;50.720;11.342;2023-06-22T00:03:29;100278.72;;;19.75;79.09
44974;BME280;60981;50.720;11.342;2023-06-22T00:04:31;100220.44;;;19.74;78.66
44974;BME280;60981;50.720;11.342;2023-06-22T00:05:33;100298.66;;;19.74;78.93
44974;BME280;60981;50.720;11.342;2023-06-22T00:06:35;100318.03;;;19.71;78.98
44974;BME280;60981;50.720;11.342;2023-06-22T00:07:37;100337.19;;;19.70;79.62
44974;BME280;60981;50.720;11.342;2023-06-22T00:08:39;100233.06;;;19.69;79.21
44974;BME280;60981;50.720;11.342;2023-06-22T00:09:41;100231.13;;;19.64;79.39
44974;BME280;60981;50.720;11.342;2023-06-22T00:10:43;100341.94;;;19.63;79.58
44974;BME280;60981;50.720;11.342;2023-06-22T00:11:44;100335.16;;;19.60;79.20
44974;BME280;60981;50.720;11.342;2023-06-22T00:12:46;100387.84;;;19.51;79.74
44974;BME280;60981;50.720;11.342;2023-06-22T00:13:48;100466.53;;;19.48;79.96
44974;BME280;60981;50.720;11.342;2023-06-22T00:14:50;100370.78;;;19.45;80.07
44974;BME280;60981;50.720;11.342;2023-06-22T00:15:52;100360.25;;;19.44;80.10
44974;BME280;60981;50.720;11.342;2023-06-22T00:16:54;100513.34;;;19.42;80.01
44974;BME280;60981;50.720;11.342;2023-06-22T00:18:00;100562.94;;;19.41;79.79
44974;BME280;60981;50.720;11.342;2023-06-22T00:19:02;100513.25;;;19.37;80.11
44974;BME280;60981;50.720;11.342;2023-06-22T00:20:04;100582.94;;;19.28;80.32
44974;BME280;60981;50.720;11.342;2023-06-22T00:21:07;100559.41;;;19.24;80.44
44974;BME280;60981;50.720;11.342;2023-06-22T00:22:09;100523.44;;;19.18;80.02
44974;BME280;60981;50.720;11.342;2023-06-22T00:23:11;100750.91;;;19.17;80.58
44974;BME280;60981;50.720;11.342;2023-06-22T00:24:13;100699.69;;;19.17;81.18
44974;BME280;60981;50.720;11.342;2023-06-22T00:25:15;100778.09;;;19.16;81.23
44974;BME280;60981;50.720;11.342;2023-06-22T00:26:17;100920.34;;;19.13;81.12
44974;BME280;60981;50.720;11.342;2023-06-22T00:27:19;100839.94;;;19.10;81.56
44974;BME280;60981;50.720;11.342;2023-06-22T00:28:21;100981.59;;;19.06;81.46
44974;BME280;60981;50.720;11.342;2023-06-22T00:29:23;101067.03;;;19.06;81.62
44974;BME280;60981;50.720;11.342;2023-06-22T00:30:26;101107.91;;;19.03;81.69
44974;BME280;60981;50.720;11.342;2023-06-22T00:31:28;101219.22;;;19.03;81.52
44974;BME280;60981;50.720;11.342;2023-06-22T00:32:30;101014.88;;;19.00;81.59
44974;BME280;60981;50.720;11.342;2023-06-22T00:33:32;101315.25;;;18.98;81.44
44974;BME280;60981;50.720;11.342;2023-06-22T00:34:33;101247.06;;;18.97;81.63
44974;BME280;60981;50.720;11.342;2023-06-22T00:35:35;101019.06;;;18.96;81.38
44974;BME280;60981;50.720;11.342;2023-06-22T00:36:37;101132.22;;;18.96;81.36
44974;BME280;60981;50.720;11.342;2023-06-22T00:37:39;101134.34;;;18.94;81.82
44974;BME280;60981;50.720;11.342;2023-06-22T00:38:43;101247.94;;;18.91;82.37
44974;BME280;60981;50.720;11.342;2023-06-22T00:39:45;101247.34;;;18.89;82.27
44974;BME280;60981;50.720;11.342;2023-06-22T00:40:46;101315.38;;;18.85;82.51
44974;BME280;60981;50.720;11.342;2023-06-22T00:41:48;101240.16;;;18.83;82.68
44974;BME280;60981;50.720;11.342;2023-06-22T00:42:50;101323.06;;;18.81;82.26
44974;BME280;60981;50.720;11.342;2023-06-22T00:43:52;101606.16;;;18.79;82.58
44974;BME280;60981;50.720;11.342;2023-06-22T00:44:54;101167.25;;;18.78;82.06
44974;BME280;60981;50.720;11.342;2023-06-22T00:45:56;101325.59;;;18.76;82.24
44974;BME280;60981;50.720;11.342;2023-06-22T00:46:58;101215.16;;;18.76;82.12
44974;BME280;60981;50.720;11.342;2023-06-22T00:48:01;101076.13;;;18.75;82.07
44974;BME280;60981;50.720;11.342;2023-06-22T00:49:04;101133.09;;;18.72;81.88
44974;BME280;60981;50.720;11.342;2023-06-22T00:50:07;101052.31;;;18.72;81.30
44974;BME280;60981;50.720;11.342;2023-06-22T00:51:11;101346.94;;;18.71;81.83
44974;BME280;60981;50.720;11.342;2023-06-22T00:52:13;101015.63;;;18.71;81.71
44974;BME280;60981;50.720;11.342;2023-06-22T00:53:22;101105.56;;;18.70;81.93
44974;BME280;60981;50.720;11.342;2023-06-22T00:54:24;101047.13;;;18.70;81.55
44974;BME280;60981;50.720;11.342;2023-06-22T00:55:26;101124.19;;;18.71;81.82
44974;BME280;60981;50.720;11.342;2023-06-22T00:56:29;101132.50;;;18.70;81.90
44974;BME280;60981;50.720;11.342;2023-06-22T00:57:31;101082.38;;;18.69;81.97
44974;BME280;60981;50.720;11.342;2023-06-22T00:58:33;101055.66;;;18.67;82.11
44974;BME280;60981;50.720;11.342;2023-06-22T00:59:36;100960.81;;;18.65;81.99
44974;BME280;60981;50.720;11.342;2023-06-22T01:00:38;101168.81;;;18.61;82.19
44974;BME280;60981;50.720;11.342;2023-06-22T01:01:40;101118.09;;;18.58;82.10
44974;BME280;60981;50.720;11.342;2023-06-22T01:02:43;101209.06;;;18.56;81.90
44974;BME280;60981;50.720;11.342;2023-06-22T01:03:48;101221.69;;;18.55;82.04
44974;BME280;60981;50.720;11.342;2023-06-22T01:04:52;101169.09;;;18.52;82.21
44974;BME280;60981;50.720;11.342;2023-06-22T01:05:59;101215.31;;;18.49;81.84
44974;BME280;60981;50.720;11.342;2023-06-22T01:08:44;101063.94;;;18.47;82.07
44974;BME280;60981;50.720;11.342;2023-06-22T01:09:59;100994.75;;;18.48;81.82
44974;BME280;60981;50.720;11.342;2023-06-22T01:11:17;101085.47;;;18.47;81.99
44974;BME280;60981;50.720;11.342;2023-06-22T01:12:21;101069.31;;;18.47;81.75
44974;BME280;60981;50.720;11.342;2023-06-22T01:14:28;101142.63;;;18.49;82.09
44974;BME280;60981;50.720;11.342;2023-06-22T01:15:37;101080.47;;;18.51;81.88
44974;BME280;60981;50.720;11.342;2023-06-22T01:16:41;101027.22;;;18.53;81.92
44974;BME280;60981;50.720;11.342;2023-06-22T01:17:45;101117.94;;;18.52;82.06
44974;BME280;60981;50.720;11.342;2023-06-22T01:18:47;101125.19;;;18.52;81.76
44974;BME280;60981;50.720;11.342;2023-06-22T01:19:51;101205.97;;;18.52;82.08
44974;BME280;60981;50.720;11.342;2023-06-22T01:20:58;101216.97;;;18.50;82.21
44974;BME280;60981;50.720;11.342;2023-06-22T01:22:02;101174.09;;;18.49;82.12
44974;BME280;60981;50.720;11.342;2023-06-22T01:23:16;101083.59;;;18.48;82.50
44974;BME280;60981;50.720;11.342;2023-06-22T01:25:33;101194.44;;;18.45;82.58
44974;BME280;60981;50.720;11.342;2023-06-22T01:26:54;101126.31;;;18.44;82.31
44974;BME280;60981;50.720;11.342;2023-06-22T01:28:59;101111.19;;;18.43;82.56
44974;BME280;60981;50.720;11.342;2023-06-22T01:30:03;101043.91;;;18.43;82.44
44974;BME280;60981;50.720;11.342;2023-06-22T01:31:07;101186.59;;;18.43;82.31
44974;BME280;60981;50.720;11.342;2023-06-22T01:32:10;101058.63;;;18.41;81.67
44974;BME280;60981;50.720;11.342;2023-06-22T01:33:13;101064.69;;;18.36;81.66
44974;BME280;60981;50.720;11.342;2023-06-22T01:34:15;101010.25;;;18.34;81.77
44974;BME280;60981;50.720;11.342;2023-06-22T01:35:18;101081.06;;;18.35;81.57
44974;BME280;60981;50.720;11.342;2023-06-22T01:36:21;101001.78;;;18.31;81.23
44974;BME280;60981;50.720;11.342;2023-06-22T01:37:22;100970.16;;;18.26;81.96
44974;BME280;60981;50.720;11.342;2023-06-22T01:38:24;101058.00;;;18.21;82.02
44974;BME280;60981;50.720;11.342;2023-06-22T01:39:26;101067.56;;;18.16;82.05
44974;BME280;60981;50.720;11.342;2023-06-22T01:40:28;100990.56;;;18.15;82.36
44974;BME280;60981;50.720;11.342;2023-06-22T01:41:34;100997.00;;;18.14;82.14
44974;BME280;60981;50.720;11.342;2023-06-22T01:42:36;100911.72;;;18.15;82.24
44974;BME280;60981;50.720;11.342;2023-06-22T01:43:38;100971.72;;;18.15;82.04
44974;BME280;60981;50.720;11.342;2023-06-22T01:44:40;100998.28;;;18.12;82.11
44974;BME280;60981;50.720;11.342;2023-06-22T01:45:42;101010.06;;;18.11;81.60
44974;BME280;60981;50.720;11.342;2023-06-22T01:46:44;101031.22;;;18.07;81.44
44974;BME280;60981;50.720;11.342;2023-06-22T01:47:46;100923.22;;;18.04;81.81
44974;BME280;60981;50.720;11.342;2023-06-22T01:48:48;100976.88;;;17.99;81.75
44974;BME280;60981;50.720;11.342;2023-06-22T01:49:51;62910.69;;;-145.11;100.00
44974;BME280;60981;50.720;11.342;2023-06-22T01:50:53;62910.69;;;-145.11;100.00
44974;BME280;60981;50.720;11.342;2023-06-22T01:51:55;62910.69;;;-145.11;100.00
44974;BME280;60981;50.720;11.342;2023-06-22T01:52:57;62910.69;;;-145.11;100.00
44974;BME280;60981;50.720;11.342;2023-06-22T01:53:58;62910.69;;;-145.11;100.00
44974;BME280;60981;50.720;11.342;2023-06-22T01:55:00;62910.69;;;-145.11;100.00
44974;BME280;60981;50.720;11.342;2023-06-22T01:56:02;62910.69;;;-145.11;100.00
44974;BME280;60981;50.720;11.342;2023-06-22T01:57:04;62910.69;;;-145.11;100.00
44974;BME280;60981;50.720;11.342;2023-06-22T01:58:06;62910.69;;;-145.11;100.00
44974;BME280;60981;50.720;11.342;2023-06-22T01:59:15;62910.69;;;-145.11;100.00
44974;BME280;60981;50.720;11.342;2023-06-22T02:00:20;62910.69;;;-145.11;100.00
44974;BME280;60981;50.720;11.342;2023-06-22T02:01:25;62910.69;;;-145.11;100.00
44974;BME280;60981;50.720;11.342;2023-06-22T02:02:31;62910.69;;;-145.11;100.00
44974;BME280;60981;50.720;11.342;2023-06-22T02:03:36;62910.69;;;-145.11;100.00
44974;BME280;60981;50.720;11.342;2023-06-22T02:04:44;62910.69;;;-145.11;100.00
44974;BME280;60981;50.720;11.342;2023-06-22T02:05:50;62910.69;;;-145.11;100.00
44974;BME280;60981;50.720;11.342;2023-06-22T02:06:55;62910.69;;;-145.11;100.00
44974;BME280;60981;50.720;11.342;2023-06-22T02:09:06;62910.69;;;-145.11;100.00
44974;BME280;60981;50.720;11.342;2023-06-22T02:10:10;62910.69;;;-145.11;100.00
44974;BME280;60981;50.720;11.342;2023-06-22T02:11:15;62910.69;;;-145.11;100.00
44974;BME280;60981;50.720;11.342;2023-06-22T02:12:18;62910.69;;;-145.11;100.00
44974;BME280;60981;50.720;11.342;2023-06-22T02:13:23;62910.69;;;-145.11;100.00
44974;BME280;60981;50.720;11.342;2023-06-22T02:14:25;62910.69;;;-145.11;100.00
44974;BME280;60981;50.720;11.342;2023-06-22T02:15:27;62910.69;;;-145.11;100.00
44974;BME280;60981;50.720;11.342;2023-06-22T02:16:30;62910.69;;;-145.11;100.00
44974;BME280;60981;50.720;11.342;2023-06-22T02:17:32;62910.69;;;-145.11;100.00
44974;BME280;60981;50.720;11.342;2023-06-22T02:18:34;62910.69;;;-145.11;100.00
44974;BME280;60981;50.720;11.342;2023-06-22T02:19:38;62910.69;;;-145.11;100.00
44974;BME280;60981;50.720;11.342;2023-06-22T02:20:42;62910.69;;;-145.11;100.00
44974;BME280;60981;50.720;11.342;2023-06-22T02:21:45;62910.69;;;-145.11;100.00
44974;BME280;60981;50.720;11.342;2023-06-22T02:22:46;62910.69;;;-145.11;100.00
44974;BME280;60981;50.720;11.342;2023-06-22T02:23:48;62910.69;;;-145.11;100.00
44974;BME280;60981;50.720;11.342;2023-06-22T02:24:50;62910.69;;;-145.11;100.00
44974;BME280;60981;50.720;11.342;2023-06-22T02:25:52;62910.69;;;-145.11;100.00
44974;BME280;60981;50.720;11.342;2023-06-22T02:26:54;62910.69;;;-145.11;100.00
44974;BME280;60981;50.720;11.342;2023-06-22T02:27:55;62910.69;;;-145.11;100.00
44974;BME280;60981;50.720;11.342;2023-06-22T02:28:57;62910.69;;;-145.11;100.00
44974;BME280;60981;50.720;11.342;2023-06-22T02:29:59;62910.69;;;-145.11;100.00
44974;BME280;60981;50.720;11.342;2023-06-22T02:31:01;62910.69;;;-145.11;100.00
44974;BME280;60981;50.720;11.342;2023-06-22T02:32:03;62910.69;;;-145.11;100.00
44974;BME280;60981;50.720;11.342;2023-06-22T02:33:05;62910.69;;;-145.11;100.00
44974;BME280;60981;50.720;11.342;2023-06-22T02:34:07;62910.69;;;-145.11;100.00
44974;BME280;60981;50.720;11.342;2023-06-22T02:35:09;62910.69;;;-145.11;100.00
44974;BME280;60981;50.720;11.342;2023-06-22T02:36:11;62910.69;;;-145.11;100.00
44974;BME280;60981;50.720;11.342;2023-06-22T02:37:14;62910.69;;;-145.11;100.00
44974;BME280;60981;50.720;11.342;2023-06-22T02:38:16;62910.69;;;-145.11;100.00
44974;BME280;60981;50.720;11.342;2023-06-22T02:39:23;62910.69;;;-145.11;100.00
44974;BME280;60981;50.720;11.342;2023-06-22T02:40:25;62910.69;;;-145.11;100.00
44974;BME280;60981;50.720;11.342;2023-06-22T02:41:27;62910.69;;;-145.11;100.00
44974;BME280;60981;50.720;11.342;2023-06-22T02:42:28;62910.69;;;-145.11;100.00
44974;BME280;60981;50.720;11.342;2023-06-22T02:43:30;62910.69;;;-145.11;100.00
44974;BME280;60981;50.720;11.342;2023-06-22T02:44:32;62910.69;;;-145.11;100.00
44974;BME280;60981;50.720;11.342;2023-06-22T02:45:34;62910.69;;;-145.11;100.00
44974;BME280;60981;50.720;11.342;2023-06-22T02:46:36;62910.69;;;-145.11;100.00
44974;BME280;60981;50.720;11.342;2023-06-22T02:47:37;62910.69;;;-145.11;100.00
44974;BME280;60981;50.720;11.342;2023-06-22T02:48:39;62910.69;;;-145.11;100.00
44974;BME280;60981;50.720;11.342;2023-06-22T02:49:41;62910.69;;;-145.11;100.00
44974;BME280;60981;50.720;11.342;2023-06-22T02:50:43;62910.69;;;-145.11;100.00
44974;BME280;60981;50.720;11.342;2023-06-22T02:51:45;62910.69;;;-145.11;100.00
44974;BME280;60981;50.720;11.342;2023-06-22T02:52:48;62910.69;;;-145.11;100.00
44974;BME280;60981;50.720;11.342;2023-06-22T02:53:49;62910.69;;;-145.11;100.00
44974;BME280;60981;50.720;11.342;2023-06-22T02:54:53;62910.69;;;-145.11;100.00
44974;BME280;60981;50.720;11.342;2023-06-22T02:55:55;62910.69;;;-145.11;100.00
44974;BME280;60981;50.720;11.342;2023-06-22T02:56:57;62910.69;;;-145.11;100.00
44974;BME280;60981;50.720;11.342;2023-06-22T02:57:58;62910.69;;;-145.11;100.00
44974;BME280;60981;50.720;11.342;2023-06-22T02:59:01;62910.69;;;-145.11;100.00
44974;BME280;60981;50.720;11.342;2023-06-22T03:00:03;62910.69;;;-145.11;100.00
44974;BME280;60981;50.720;11.342;2023-06-22T03:01:17;62910.69;;;-145.11;100.00
44974;BME280;60981;50.720;11.342;2023-06-22T03:02:25;62910.69;;;-145.11;100.00
44974;BME280;60981;50.720;11.342;2023-06-22T03:03:28;62910.69;;;-145.11;100.00
44974;BME280;60981;50.720;11.342;2023-06-22T03:04:30;62910.69;;;-145.11;100.00
44974;BME280;60981;50.720;11.342;2023-06-22T03:05:32;62910.69;;;-145.11;100.00
44974;BME280;60981;50.720;11.342;2023-06-22T03:06:36;62910.69;;;-145.11;100.00
44974;BME280;60981;50.720;11.342;2023-06-22T03:07:38;62910.69;;;-145.11;100.00
44974;BME280;60981;50.720;11.342;2023-06-22T03:08:40;62910.69;;;-145.11;100.00
44974;BME280;60981;50.720;11.342;2023-06-22T03:09:43;62910.69;;;-145.11;100.00
44974;BME280;60981;50.720;11.342;2023-06-22T03:10:45;62910.69;;;-145.11;100.00
44974;BME280;60981;50.720;11.342;2023-06-22T03:11:47;62910.69;;;-145.11;100.00
44974;BME280;60981;50.720;11.342;2023-06-22T03:12:48;62910.69;;;-145.11;100.00
44974;BME280;60981;50.720;11.342;2023-06-22T03:13:50;62910.69;;;-145.11;100.00
44974;BME280;60981;50.720;11.342;2023-06-22T03:14:54;62910.69;;;-145.11;100.00
44974;BME280;60981;50.720;11.342;2023-06-22T03:15:55;62910.69;;;-145.11;100.00
44974;BME280;60981;50.720;11.342;2023-06-22T03:16:57;62910.69;;;-145.11;100.00
44974;BME280;60981;50.720;11.342;2023-06-22T03:18:04;62910.69;;;-145.11;100.00
44974;BME280;60981;50.720;11.342;2023-06-22T03:19:06;62910.69;;;-145.11;100.00
44974;BME280;60981;50.720;11.342;2023-06-22T03:20:09;62910.69;;;-145.11;100.00
44974;BME280;60981;50.720;11.342;2023-06-22T03:21:12;62910.69;;;-145.11;100.00
44974;BME280;60981;50.720;11.342;2023-06-22T03:22:13;62910.69;;;-145.11;100.00
44974;BME280;60981;50.720;11.342;2023-06-22T03:23:16;62910.69;;;-145.11;100.00
44974;BME280;60981;50.720;11.342;2023-06-22T03:24:18;62910.69;;;-145.11;100.00
44974;BME280;60981;50.720;11.342;2023-06-22T03:25:20;62910.69;;;-145.11;100.00
44974;BME280;60981;50.720;11.342;2023-06-22T03:26:22;62910.69;;;-145.11;100.00
44974;BME280;60981;50.720;11.342;2023-06-22T03:27:25;62910.69;;;-145.11;100.00
44974;BME280;60981;50.720;11.342;2023-06-22T03:28:26;62910.69;;;-145.11;100.00
44974;BME280;60981;50.720;11.342;2023-06-22T03:29:28;62910.69;;;-145.11;100.00
44974;BME280;60981;50.720;11.342;2023-06-22T03:30:31;62910.69;;;-145.11;100.00
44974;BME280;60981;50.720;11.342;2023-06-22T03:31:33;62910.69;;;-145.11;100.00
44974;BME280;60981;50.720;11.342;2023-06-22T03:32:35;62910.69;;;-145.11;100.00
44974;BME280;60981;50.720;11.342;2023-06-22T03:33:37;62910.69;;;-145.11;100.00
44974;BME280;60981;50.720;11.342;2023-06-22T03:34:39;62910.69;;;-145.11;100.00
44974;BME280;60981;50.720;11.342;2023-06-22T03:35:40;62910.69;;;-145.11;100.00
44974;BME280;60981;50.720;11.342;2023-06-22T03:36:42;62910.69;;;-145.11;100.00
44974;BME280;60981;50.720;11.342;2023-06-22T03:37:46;62910.69;;;-145.11;100.00
44974;BME280;60981;50.720;11.342;2023-06-22T03:38:48;62910.69;;;-145.11;100.00
44974;BME280;60981;50.720;11.342;2023-06-22T03:39:50;62910.69;;;-145.11;100.00
44974;BME280;60981;50.720;11.342;2023-06-22T03:40:52;62910.69;;;-145.11;100.00
44974;BME280;60981;50.720;11.342;2023-06-22T03:41:53;62910.69;;;-145.11;100.00
44974;BME280;60981;50.720;11.342;2023-06-22T03:42:55;62910.69;;;-145.11;100.00
44974;BME280;60981;50.720;11.342;2023-06-22T03:43:57;62910.69;;;-145.11;100.00
44974;BME280;60981;50.720;11.342;2023-06-22T03:44:59;62910.69;;;-145.11;100.00
44974;BME280;60981;50.720;11.342;2023-06-22T03:46:02;62910.69;;;-145.11;100.00
44974;BME280;60981;50.720;11.342;2023-06-22T03:47:04;62910.69;;;-145.11;100.00
44974;BME280;60981;50.720;11.342;2023-06-22T03:48:05;62910.69;;;-145.11;100.00
44974;BME280;60981;50.720;11.342;2023-06-22T03:49:07;62910.69;;;-145.11;100.00
44974;BME280;60981;50.720;11.342;2023-06-22T03:50:09;62910.69;;;-145.11;100.00
44974;BME280;60981;50.720;11.342;2023-06-22T03:51:11;62910.69;;;-145.11;100.00
44974;BME280;60981;50.720;11.342;2023-06-22T03:52:12;62910.69;;;-145.11;100.00
44974;BME280;60981;50.720;11.342;2023-06-22T03:53:14;62910.69;;;-145.11;100.00
44974;BME280;60981;50.720;11.342;2023-06-22T03:54:16;62910.69;;;-145.11;100.00
44974;BME280;60981;50.720;11.342;2023-06-22T03:55:21;62910.69;;;-145.11;100.00
44974;BME280;60981;50.720;11.342;2023-06-22T03:56:23;62910.69;;;-145.11;100.00
44974;BME280;60981;50.720;11.342;2023-06-22T03:57:24;62910.69;;;-145.11;100.00
44974;BME280;60981;50.720;11.342;2023-06-22T03:58:26;62910.69;;;-145.11;100.00
44974;BME280;60981;50.720;11.342;2023-06-22T03:59:35;62910.69;;;-145.11;100.00
44974;BME280;60981;50.720;11.342;2023-06-22T04:00:38;62910.69;;;-145.11;100.00
44974;BME280;60981;50.720;11.342;2023-06-22T04:01:45;62910.69;;;-145.11;100.00
44974;BME280;60981;50.720;11.342;2023-06-22T04:02:48;62910.69;;;-145.11;100.00
44974;BME280;60981;50.720;11.342;2023-06-22T04:03:50;62910.69;;;-145.11;100.00
44974;BME280;60981;50.720;11.342;2023-06-22T04:04:52;62910.69;;;-145.11;100.00
44974;BME280;60981;50.720;11.342;2023-06-22T04:05:54;62910.69;;;-145.11;100.00
44974;BME280;60981;50.720;11.342;2023-06-22T04:06:56;62910.69;;;-145.11;100.00
44974;BME280;60981;50.720;11.342;2023-06-22T04:07:57;62910.69;;;-145.11;100.00
44974;BME280;60981;50.720;11.342;2023-06-22T04:08:59;62910.69;;;-145.11;100.00
44974;BME280;60981;50.720;11.342;2023-06-22T04:10:05;62910.69;;;-145.11;100.00
44974;BME280;60981;50.720;11.342;2023-06-22T04:11:07;62910.69;;;-145.11;100.00
44974;BME280;60981;50.720;11.342;2023-06-22T04:12:08;62910.69;;;-145.11;100.00
44974;BME280;60981;50.720;11.342;2023-06-22T04:13:10;62910.69;;;-145.11;100.00
44974;BME280;60981;50.720;11.342;2023-06-22T04:14:12;62910.69;;;-145.11;100.00
44974;BME280;60981;50.720;11.342;2023-06-22T04:15:13;62910.69;;;-145.11;100.00
44974;BME280;60981;50.720;11.342;2023-06-22T04:16:15;62910.69;;;-145.11;100.00
44974;BME280;60981;50.720;11.342;2023-06-22T04:17:17;62910.69;;;-145.11;100.00
44974;BME280;60981;50.720;11.342;2023-06-22T04:18:20;62910.69;;;-145.11;100.00
44974;BME280;60981;50.720;11.342;2023-06-22T04:19:22;62910.69;;;-145.11;100.00
44974;BME280;60981;50.720;11.342;2023-06-22T04:20:24;62910.69;;;-145.11;100.00
44974;BME280;60981;50.720;11.342;2023-06-22T04:21:30;62910.69;;;-145.11;100.00
44974;BME280;60981;50.720;11.342;2023-06-22T04:22:32;62910.69;;;-145.11;100.00
44974;BME280;60981;50.720;11.342;2023-06-22T04:23:33;62910.69;;;-145.11;100.00
44974;BME280;60981;50.720;11.342;2023-06-22T04:24:35;62910.69;;;-145.11;100.00
44974;BME280;60981;50.720;11.342;2023-06-22T04:25:37;62910.69;;;-145.11;100.00
44974;BME280;60981;50.720;11.342;2023-06-22T04:26:39;100976.88;;;17.99;81.75
44974;BME280;60981;50.720;11.342;2023-06-22T04:27:42;100570.44;;;18.35;81.80
44974;BME280;60981;50.720;11.342;2023-06-22T04:28:44;100504.31;;;18.39;81.29
44974;BME280;60981;50.720;11.342;2023-06-22T04:29:53;100458.06;;;18.42;81.18
44974;BME280;60981;50.720;11.342;2023-06-22T04:30:54;100477.25;;;18.46;81.08
44974;BME280;60981;50.720;11.342;2023-06-22T04:31:59;100541.63;;;18.47;81.03
44974;BME280;60981;50.720;11.342;2023-06-22T04:33:04;100442.59;;;18.49;80.67
44974;BME280;60981;50.720;11.342;2023-06-22T04:34:06;100525.00;;;18.50;80.90
44974;BME280;60981;50.720;11.342;2023-06-22T04:35:08;100479.81;;;18.52;80.72
44974;BME280;60981;50.720;11.342;2023-06-22T04:36:10;100434.16;;;18.58;80.53
44974;BME280;60981;50.720;11.342;2023-06-22T04:37:14;100410.63;;;18.65;80.90
44974;BME280;60981;50.720;11.342;2023-06-22T04:38:17;100461.31;;;18.68;80.58
44974;BME280;60981;50.720;11.342;2023-06-22T04:39:18;100416.09;;;18.70;80.00
44974;BME280;60981;50.720;11.342;2023-06-22T04:40:23;100432.38;;;18.75;80.22
44974;BME280;60981;50.720;11.342;2023-06-22T04:41:25;100458.84;;;18.78;79.98
44974;BME280;60981;50.720;11.342;2023-06-22T04:42:27;100556.84;;;18.77;79.69
44974;BME280;60981;50.720;11.342;2023-06-22T04:43:28;100461.28;;;18.79;79.89
44974;BME280;60981;50.720;11.342;2023-06-22T04:44:32;100598.78;;;18.85;79.50
44974;BME280;60981;50.720;11.342;2023-06-22T04:45:33;100610.22;;;18.92;79.67
44974;BME280;60981;50.720;11.342;2023-06-22T04:46:39;100600.38;;;18.97;78.72
44974;BME280;60981;50.720;11.342;2023-06-22T04:47:41;100432.84;;;19.00;79.12
44974;BME280;60981;50.720;11.342;2023-06-22T04:48:43;100530.56;;;18.96;79.23
44974;BME280;60981;50.720;11.342;2023-06-22T04:49:45;100508.44;;;18.94;78.88
44974;BME280;60981;50.720;11.342;2023-06-22T04:50:46;100438.16;;;18.95;78.79
44974;BME280;60981;50.720;11.342;2023-06-22T04:51:48;100529.50;;;18.97;79.12
44974;BME280;60981;50.720;11.342;2023-06-22T04:52:53;100540.19;;;18.92;78.98
44974;BME280;60981;50.720;11.342;2023-06-22T04:53:54;100597.00;;;18.90;79.38
44974;BME280;60981;50.720;11.342;2023-06-22T04:55:02;100604.25;;;18.90;79.42
44974;BME280;60981;50.720;11.342;2023-06-22T04:56:05;100592.06;;;18.99;79.07
44974;BME280;60981;50.720;11.342;2023-06-22T04:57:07;100533.94;;;19.03;78.84
44974;BME280;60981;50.720;11.342;2023-06-22T04:58:12;100504.88;;;19.05;78.81
44974;BME280;60981;50.720;11.342;2023-06-22T04:59:14;100536.97;;;19.06;79.01
44974;BME280;60981;50.720;11.342;2023-06-22T05:00:19;100527.91;;;19.12;78.81
44974;BME280;60981;50.720;11.342;2023-06-22T05:01:23;100512.81;;;19.11;78.74
44974;BME280;60981;50.720;11.342;2023-06-22T05:02:25;100517.63;;;19.09;78.96
44974;BME280;60981;50.720;11.342;2023-06-22T05:03:29;100542.94;;;19.08;78.56
44974;BME280;60981;50.720;11.342;2023-06-22T05:04:31;100509.78;;;19.08;79.20
44974;BME280;60981;50.720;11.342;2023-06-22T05:05:33;100538.84;;;19.06;79.15
44974;BME280;60981;50.720;11.342;2023-06-22T05:06:35;100557.84;;;18.99;79.45
44974;BME280;60981;50.720;11.342;2023-06-22T05:07:37;100582.81;;;18.95;79.34
44974;BME280;60981;50.720;11.342;2023-06-22T05:08:39;100498.97;;;18.91;79.53
44974;BME280;60981;50.720;11.342;2023-06-22T05:09:40;100532.59;;;18.89;79.69
44974;BME280;60981;50.720;11.342;2023-06-22T05:10:42;100543.84;;;18.86;80.23
44974;BME280;60981;50.720;11.342;2023-06-22T05:11:59;100522.63;;;18.89;80.22
44974;BME280;60981;50.720;11.342;2023-06-22T05:13:03;100533.16;;;18.91;79.85
44974;BME280;60981;50.720;11.342;2023-06-22T05:14:05;100617.59;;;18.96;79.66
44974;BME280;60981;50.720;11.342;2023-06-22T05:15:07;100534.41;;;19.00;79.38
44974;BME280;60981;50.720;11.342;2023-06-22T05:16:09;100602.84;;;18.99;79.67
44974;BME280;60981;50.720;11.342;2023-06-22T05:17:11;100606.69;;;19.03;79.34
44974;BME280;60981;50.720;11.342;2023-06-22T05:18:16;100578.94;;;19.02;79.58
44974;BME280;60981;50.720;11.342;2023-06-22T05:19:18;100575.16;;;19.03;79.39
44974;BME280;60981;50.720;11.342;2023-06-22T05:20:20;100566.84;;;19.05;79.33
44974;BME280;60981;50.720;11.342;2023-06-22T05:21:25;100604.69;;;19.10;79.49
44974;BME280;60981;50.720;11.342;2023-06-22T05:22:27;100509.88;;;19.13;78.93
44974;BME280;60981;50.720;11.342;2023-06-22T05:23:29;100585.09;;;19.14;78.62
44974;BME280;60981;50.720;11.342;2023-06-22T05:24:30;100527.44;;;19.16;78.91
44974;BME280;60981;50.720;11.342;2023-06-22T05:25:32;100493.31;;;19.21;78.48
44974;BME280;60981;50.720;11.342;2023-06-22T05:26:34;100499.03;;;19.25;78.40
44974;BME280;60981;50.720;11.342;2023-06-22T05:27:36;100486.13;;;19.27;78.75